Time;durP1;ratioP1;P1;durP2;ratioP2;P2;SDS_P1;SDS_P2;PMS_P1;PMS_P2;Temp;Humidity;BMP_temperature;BMP_pressure;BME280_temperature;BME280_humidity;BME280_pressure;Samples;Min_cycle;Max_cycle;Signal;HPM_P1;HPM_P2
2021/07/01 00:00:53;;;;;;;;;12.67;11.00;;;;;16.25;71.04;101339.22;5101661;27;45350;-80
2021/07/01 00:03:19;;;;;;;;;13.00;12.67;;;;;16.23;70.88;101335.09;5101399;27;45442;-79
2021/07/01 00:05:44;;;;;;;;;15.00;14.00;;;;;16.26;71.14;101337.38;5100061;27;46099;-80
2021/07/01 00:08:10;;;;;;;;;13.00;11.67;;;;;16.24;70.81;101332.22;5101304;27;45349;-80
2021/07/01 00:10:36;;;;;;;;;15.00;12.33;;;;;16.25;71.04;101341.09;5101551;27;45317;-80
2021/07/01 00:13:01;;;;;;;;;10.33;10.33;;;;;16.23;70.46;101337.78;5101301;27;45488;-80
2021/07/01 00:15:30;;;;;;;;;12.00;12.00;;;;;16.25;71.02;101341.09;5101428;27;46130;-80
2021/07/01 00:17:55;;;;;;;;;11.67;11.67;;;;;16.20;70.47;101339.00;5101124;27;45419;-80
2021/07/01 00:20:22;;;;;;;;;8.67;8.67;;;;;16.19;70.33;101340.00;5101132;27;45211;-80
2021/07/01 00:22:49;;;;;;;;;10.00;8.67;;;;;16.15;70.74;101338.75;5100907;27;45322;-80
2021/07/01 00:25:15;;;;;;;;;8.33;7.00;;;;;16.17;70.78;101338.56;5099787;27;48267;-80
2021/07/01 00:27:41;;;;;;;;;10.00;10.00;;;;;16.18;70.46;101338.38;5101144;27;45322;-80
2021/07/01 00:30:09;;;;;;;;;8.67;8.33;;;;;16.15;70.86;101338.75;5100927;27;45213;-80
2021/07/01 00:32:35;;;;;;;;;11.67;8.00;;;;;16.16;70.62;101335.03;5100794;27;45297;-80
2021/07/01 00:35:01;;;;;;;;;10.67;9.00;;;;;16.20;70.60;101340.84;5082350;27;47607;-80
2021/07/01 00:37:29;;;;;;;;;9.33;8.33;;;;;16.19;70.98;101347.25;5082461;27;45582;-80
2021/07/01 00:39:55;;;;;;;;;11.33;9.67;;;;;16.21;71.43;101340.66;5101175;27;45346;-80
2021/07/01 00:42:21;;;;;;;;;9.00;9.00;;;;;16.22;71.35;101336.13;5100479;27;45297;-80
2021/07/01 00:44:46;;;;;;;;;10.67;10.00;;;;;16.25;71.13;101341.09;5100706;27;45710;-80
2021/07/01 00:47:11;;;;;;;;;9.00;8.67;;;;;16.29;70.96;101339.66;5100584;27;45292;-80
2021/07/01 00:49:37;;;;;;;;;10.00;8.67;;;;;16.27;70.85;101350.59;5082303;27;45491;-80
2021/07/01 00:52:03;;;;;;;;;11.67;11.67;;;;;16.28;71.17;101349.56;5100717;27;45261;-80
2021/07/01 00:54:29;;;;;;;;;10.33;10.33;;;;;16.30;71.35;101343.16;5100359;27;46584;-80
2021/07/01 00:56:54;;;;;;;;;11.00;11.00;;;;;16.30;70.89;101344.00;5100697;27;45239;-80
2021/07/01 00:59:21;;;;;;;;;13.67;9.33;;;;;16.30;71.17;101338.63;5100690;27;45240;-80
2021/07/01 01:01:47;;;;;;;;;8.33;8.00;;;;;16.27;71.29;101339.88;5100423;27;45438;-80
2021/07/01 01:04:12;;;;;;;;;10.67;9.33;;;;;16.28;70.60;101346.03;5100247;27;45317;-80
2021/07/01 01:06:38;;;;;;;;;11.00;9.67;;;;;16.24;70.95;101344.78;5100317;27;45391;-80
2021/07/01 01:09:06;;;;;;;;;9.00;8.00;;;;;16.24;70.99;101345.63;5100721;27;45277;-80
2021/07/01 01:11:32;;;;;;;;;9.00;8.00;;;;;16.23;70.45;101337.78;5100362;27;45601;-80
2021/07/01 01:13:57;;;;;;;;;10.00;10.00;;;;;16.25;70.88;101344.59;5081931;27;47380;-80
2021/07/01 01:16:23;;;;;;;;;9.33;8.00;;;;;16.25;71.10;101341.91;5099965;27;45294;-80
2021/07/01 01:18:49;;;;;;;;;8.00;8.00;;;;;16.22;70.74;101336.94;5100126;27;45241;-80
2021/07/01 01:21:17;;;;;;;;;11.00;11.00;;;;;16.24;71.30;101342.09;5081929;27;46000;-80
2021/07/01 01:23:43;;;;;;;;;10.00;8.67;;;;;16.25;71.29;101347.28;5081526;27;47239;-80
2021/07/01 01:26:09;;;;;;;;;8.00;8.00;;;;;16.24;71.33;101331.38;5100238;27;45299;-79
2021/07/01 01:28:36;;;;;;;;;8.67;8.67;;;;;16.22;70.98;101336.94;5100262;27;45408;-80
2021/07/01 01:31:04;;;;;;;;;10.33;10.33;;;;;16.21;70.95;101332.59;5081368;27;46363;-80
2021/07/01 01:33:29;;;;;;;;;9.00;9.00;;;;;16.23;71.12;101332.41;5099900;27;46111;-80
2021/07/01 01:35:55;;;;;;;;;8.00;7.00;;;;;16.21;71.34;101329.94;5099980;27;45247;-80
2021/07/01 01:38:20;;;;;;;;;9.33;7.33;;;;;16.22;71.79;101339.63;5081629;27;45335;-80
2021/07/01 01:40:48;;;;;;;;;9.33;9.33;;;;;16.18;71.77;101337.53;5099992;27;45561;-80
2021/07/01 01:43:21;;;;;;;;;8.33;8.00;;;;;16.16;72.28;101337.72;5100061;27;45309;-80
2021/07/01 01:45:50;;;;;;;;;6.33;6.33;;;;;16.15;72.02;101336.06;5081219;27;45290;-80
2021/07/01 01:48:15;;;;;;;;;6.67;6.67;;;;;16.10;72.57;101333.16;5100095;27;45478;-80
2021/07/01 01:50:41;;;;;;;;;7.67;7.67;;;;;16.08;72.53;101329.84;5099790;27;45279;-80
2021/07/01 01:53:08;;;;;;;;;8.67;8.67;;;;;16.02;72.65;101331.47;5099725;27;45279;-80
2021/07/01 01:55:35;;;;;;;;;10.33;10.00;;;;;16.00;72.40;101331.66;5081306;27;45326;-80
2021/07/01 01:58:01;;;;;;;;;9.33;8.33;;;;;15.97;72.62;101329.38;5099989;27;45283;-80
2021/07/01 02:00:27;;;;;;;;;11.00;11.00;;;;;15.97;72.45;101329.38;5099761;27;45354;-80
2021/07/01 02:02:53;;;;;;;;;9.67;8.00;;;;;15.96;72.77;101338.44;5099554;27;45849;-80
2021/07/01 02:05:19;;;;;;;;;10.00;9.00;;;;;15.92;72.17;101331.75;5099674;27;45326;-80
2021/07/01 02:07:45;;;;;;;;;11.67;11.67;;;;;15.93;72.59;101332.59;5081454;27;45462;-80
2021/07/01 02:10:12;;;;;;;;;8.00;8.00;;;;;15.92;72.54;101331.75;5099732;27;45327;-80
2021/07/01 02:12:38;;;;;;;;;11.00;10.00;;;;;15.96;72.22;101326.84;5099558;27;45225;-80
2021/07/01 02:15:06;;;;;;;;;9.67;8.00;;;;;15.95;72.62;101322.53;5099750;27;45218;-80
2021/07/01 02:17:35;;;;;;;;;14.33;10.00;;;;;15.97;72.29;101324.00;5099665;27;45450;-80
2021/07/01 02:20:06;;;;;;;;;15.67;13.67;;;;;15.99;72.29;101329.19;5099349;27;45476;-80
2021/07/01 02:22:31;;;;;;;;;12.67;9.67;;;;;15.99;72.22;101326.50;5099265;27;45527;-80
2021/07/01 02:24:57;;;;;;;;;12.33;9.67;;;;;15.90;72.40;101309.72;5099633;27;45389;-80
2021/07/01 02:27:22;;;;;;;;;11.00;10.00;;;;;15.86;72.36;101328.03;5099724;27;45650;-80
2021/07/01 02:29:47;;;;;;;;;10.33;9.00;;;;;15.78;72.63;101320.13;5101114;27;45444;-80
2021/07/01 02:32:13;;;;;;;;;7.33;6.67;;;;;15.73;72.64;101322.56;5102819;27;46166;-80
2021/07/01 02:34:41;;;;;;;;;11.00;9.00;;;;;15.67;72.99;101321.50;5102728;27;45393;-80
2021/07/01 02:37:08;;;;;;;;;10.33;9.33;;;;;15.62;73.15;101323.91;5102905;27;45261;-80
2021/07/01 02:39:35;;;;;;;;;9.00;8.33;;;;;15.58;72.97;101319.97;5102843;27;45543;-80
2021/07/01 02:42:01;;;;;;;;;14.67;11.00;;;;;15.54;73.29;101319.53;5102697;27;45281;-80
2021/07/01 02:44:26;;;;;;;;;10.67;10.67;;;;;15.51;73.44;101328.78;5102766;27;45332;-80
2021/07/01 02:46:52;;;;;;;;;11.00;8.67;;;;;15.47;73.94;101319.47;5084197;27;45335;-80
2021/07/01 02:49:17;;;;;;;;;15.33;13.00;;;;;15.46;74.14;101320.50;5084066;27;45486;-80
2021/07/01 02:51:42;;;;;;;;;10.67;9.33;;;;;15.44;74.05;101314.50;5102510;27;46203;-80
2021/07/01 02:54:08;;;;;;;;;14.67;12.33;;;;;15.40;74.07;101305.19;5102442;27;45289;-80
2021/07/01 02:56:42;;;;;;;;;15.33;12.67;;;;;15.40;74.24;101307.88;5102678;27;45289;-80
2021/07/01 02:59:14;;;;;;;;;13.00;10.67;;;;;15.42;74.31;101313.88;5102435;27;45318;-80
2021/07/01 03:01:39;;;;;;;;;10.00;8.67;;;;;15.40;74.53;101319.44;5083892;27;48144;-80
2021/07/01 03:04:04;;;;;;;;;12.00;12.00;;;;;15.37;74.36;101305.56;5102205;27;45441;-80
2021/07/01 03:06:30;;;;;;;;;9.33;8.67;;;;;15.40;74.17;101307.88;5102457;27;45625;-80
2021/07/01 03:08:57;;;;;;;;;13.67;11.67;;;;;15.39;74.31;101312.38;5102421;27;45272;-80
2021/07/01 03:11:23;;;;;;;;;14.67;10.67;;;;;15.39;74.60;101315.06;5102377;27;45377;-80
2021/07/01 03:13:48;;;;;;;;;11.67;10.67;;;;;15.40;74.55;101308.72;5102269;27;45341;-80
2021/07/01 03:16:19;;;;;;;;;10.67;10.67;;;;;15.40;74.57;101307.88;5102257;27;45313;-80
2021/07/01 03:18:46;;;;;;;;;10.33;10.33;;;;;15.41;74.59;101304.16;5101918;27;45449;-80
2021/07/01 03:21:12;;;;;;;;;12.00;11.00;;;;;15.38;74.90;101307.22;5101714;27;45426;-80
2021/07/01 03:23:37;;;;;;;;;14.33;12.33;;;;;15.37;74.91;101310.94;5083611;27;45296;-80
2021/07/01 03:26:03;;;;;;;;;13.33;11.00;;;;;15.38;74.84;101309.91;5102196;27;45474;-80
2021/07/01 03:28:28;;;;;;;;;17.00;14.33;;;;;15.37;74.39;101306.41;5102047;27;45293;-80
2021/07/01 03:30:54;;;;;;;;;14.67;12.00;;;;;15.38;74.67;101299.19;5101891;27;45350;-80
2021/07/01 03:33:19;;;;;;;;;12.00;11.33;;;;;15.39;74.55;101300.88;5101967;27;45438;-80
2021/07/01 03:35:45;;;;;;;;;12.00;12.00;;;;;15.38;74.47;101296.50;5083507;27;45305;-80
2021/07/01 03:38:10;;;;;;;;;10.00;10.00;;;;;15.38;74.63;101299.19;5101889;27;45246;-80
2021/07/01 03:40:35;;;;;;;;;17.33;13.00;;;;;15.36;74.72;101299.38;5101631;27;45377;-80
2021/07/01 03:43:01;;;;;;;;;15.33;12.00;;;;;15.32;75.06;101298.13;5101771;27;45347;-78
2021/07/01 03:45:27;;;;;;;;;14.00;11.33;;;;;15.29;74.96;101298.50;5102020;27;45528;-80
2021/07/01 03:47:52;;;;;;;;;11.00;10.33;;;;;15.26;74.95;101302.41;5101815;27;45438;-80
2021/07/01 03:50:18;;;;;;;;;14.00;13.33;;;;;15.27;75.06;101298.69;5083138;27;48574;-80
2021/07/01 03:52:43;;;;;;;;;13.00;12.67;;;;;15.29;75.17;101305.72;5101705;27;45218;-80
2021/07/01 03:55:09;;;;;;;;;12.00;10.67;;;;;15.29;75.25;101306.53;5101717;27;45430;-79
2021/07/01 03:57:34;;;;;;;;;15.67;14.33;;;;;15.31;75.09;101304.50;5083313;27;45933;-80
2021/07/01 04:00:02;;;;;;;;;14.00;12.00;;;;;15.30;75.17;101313.56;5090528;27;46148;-80
2021/07/01 04:02:27;;;;;;;;;15.33;14.00;;;;;15.31;75.30;101315.22;5081026;28;45336;-80
2021/07/01 04:04:53;;;;;;;;;14.33;13.00;;;;;15.34;75.44;101311.31;5081057;28;45344;-80
2021/07/01 04:07:18;;;;;;;;;14.00;12.33;;;;;15.34;75.08;101309.47;5080978;28;45470;-80
2021/07/01 04:09:43;;;;;;;;;14.67;14.00;;;;;15.39;75.07;101316.94;5081004;28;45380;-79
2021/07/01 04:12:09;;;;;;;;;15.33;14.67;;;;;15.39;74.96;101320.44;5081018;28;45261;-80
2021/07/01 04:14:35;;;;;;;;;13.67;13.67;;;;;15.36;75.01;101315.44;5081041;28;45340;-79
2021/07/01 04:17:00;;;;;;;;;12.33;10.33;;;;;15.35;75.28;101312.97;5079400;28;46988;-79
2021/07/01 04:19:26;;;;;;;;;16.33;12.67;;;;;15.37;75.18;101316.28;5080240;27;45329;-80
2021/07/01 04:21:51;;;;;;;;;13.33;13.33;;;;;15.35;75.16;101316.47;5080701;28;45338;-80
2021/07/01 04:24:16;;;;;;;;;13.00;12.00;;;;;15.35;75.11;101315.63;5080809;28;45270;-80
2021/07/01 04:26:42;;;;;;;;;11.00;10.00;;;;;15.35;74.94;101313.81;5062676;28;46160;-80
2021/07/01 04:29:07;;;;;;;;;11.33;11.00;;;;;15.33;75.74;101312.34;5062311;28;46947;-80
2021/07/01 04:31:33;;;;;;;;;12.33;11.33;;;;;15.30;75.43;101315.41;5099350;27;45290;-80
2021/07/01 04:33:58;;;;;;;;;14.00;13.00;;;;;15.30;75.15;101318.09;5100980;27;45172;-80
2021/07/01 04:36:24;;;;;;;;;12.33;10.00;;;;;15.25;75.31;101314.13;5100895;27;45309;-80
2021/07/01 04:38:50;;;;;;;;;18.00;14.00;;;;;15.25;75.35;101315.97;5100997;27;45241;-80
2021/07/01 04:41:19;;;;;;;;;17.33;13.33;;;;;15.23;75.34;101318.84;5100915;27;45234;-80
2021/07/01 04:43:44;;;;;;;;;11.67;10.67;;;;;15.24;75.78;101315.13;5082470;27;45340;-80
2021/07/01 04:46:10;;;;;;;;;16.00;14.33;;;;;15.24;75.43;101315.13;5100790;27;45487;-80
2021/07/01 04:48:35;;;;;;;;;16.33;15.67;;;;;15.14;75.53;101303.91;5082091;27;48202;-80
2021/07/01 04:51:00;;;;;;;;;14.67;11.00;;;;;15.26;75.46;101323.81;5100253;27;45358;-80
2021/07/01 04:53:26;;;;;;;;;12.67;11.33;;;;;15.25;75.52;101321.34;5100304;27;45271;-80
2021/07/01 04:55:51;;;;;;;;;15.33;12.67;;;;;15.26;75.63;101320.31;5100522;27;45357;-80
2021/07/01 04:58:16;;;;;;;;;20.33;17.33;;;;;15.23;75.51;101318.00;5100681;27;45634;-78
2021/07/01 05:00:42;;;;;;;;;13.00;11.00;;;;;15.24;75.62;101317.00;5100715;27;45262;-77
2021/07/01 05:03:07;;;;;;;;;14.67;12.33;;;;;15.22;75.58;101317.19;5082156;27;45303;-78
2021/07/01 05:05:33;;;;;;;;;15.67;14.00;;;;;15.23;75.86;101324.19;5100290;27;45534;-77
2021/07/01 05:07:58;;;;;;;;;15.00;14.00;;;;;15.26;75.52;101328.34;5100430;27;46046;-77
2021/07/01 05:10:23;;;;;;;;;14.00;14.00;;;;;15.26;75.23;101334.53;5081462;27;45272;-76
2021/07/01 05:12:49;;;;;;;;;16.33;12.00;;;;;15.16;75.51;101317.97;5100662;27;45254;-76
2021/07/01 05:15:14;;;;;;;;;15.00;14.00;;;;;15.25;75.30;101332.03;5100573;27;45521;-78
2021/07/01 05:17:39;;;;;;;;;16.67;13.00;;;;;15.22;75.38;101329.75;5100188;27;46191;-78
2021/07/01 05:20:06;;;;;;;;;15.67;15.33;;;;;15.22;75.46;101327.91;5100301;27;45257;-78
2021/07/01 05:22:32;;;;;;;;;14.00;12.33;;;;;15.18;75.40;101337.34;5100340;27;45370;-81
2021/07/01 05:24:57;;;;;;;;;15.67;15.00;;;;;15.16;75.86;101334.00;5099947;27;45364;-79
2021/07/01 05:27:22;;;;;;;;;10.67;9.67;;;;;15.15;75.61;101338.53;5099585;27;46061;-80
2021/07/01 05:29:48;;;;;;;;;12.67;11.00;;;;;15.19;76.10;101336.31;5100039;27;45369;-80
2021/07/01 05:32:13;;;;;;;;;16.00;15.67;;;;;15.24;76.40;101344.59;5099229;27;45283;-81
2021/07/01 05:34:39;;;;;;;;;12.67;12.67;;;;;15.27;76.09;101341.53;5099785;27;45330;-79
2021/07/01 05:37:05;;;;;;;;;14.00;14.00;;;;;15.36;76.40;101339.56;5100031;27;45310;-78
2021/07/01 05:39:30;;;;;;;;;15.33;13.33;;;;;15.45;76.31;101339.44;5100224;27;45358;-78
2021/07/01 05:41:56;;;;;;;;;14.33;14.33;;;;;15.53;76.43;101344.66;5100145;27;45349;-79
2021/07/01 05:44:21;;;;;;;;;13.67;13.33;;;;;15.52;76.00;101332.28;5100071;27;45521;-79
2021/07/01 05:46:46;;;;;;;;;14.33;14.33;;;;;15.68;76.22;101347.25;5099190;27;46409;-81
2021/07/01 05:49:13;;;;;;;;;14.00;13.67;;;;;15.74;76.20;101343.81;5079446;28;45320;-80
2021/07/01 05:51:39;;;;;;;;;18.33;17.00;;;;;15.83;75.51;101339.13;5061400;28;45399;-79
2021/07/01 05:56:48;;;;;;;;;18.33;15.00;;;;;15.98;74.76;101347.09;5079034;28;45752;-84
2021/07/01 05:59:14;;;;;;;;;17.00;15.00;;;;;16.01;74.94;101341.34;5079126;28;45215;-81
2021/07/01 06:01:39;;;;;;;;;17.33;17.00;;;;;16.07;75.09;101341.59;5061165;28;45337;-80
2021/07/01 06:04:06;;;;;;;;;19.33;18.33;;;;;16.10;74.92;101344.69;5076411;27;46977;-80
2021/07/01 06:06:39;;;;;;;;;18.00;15.00;;;;;16.18;74.76;101346.41;5102480;27;45423;-80
2021/07/01 06:09:05;;;;;;;;;21.00;18.67;;;;;16.18;74.13;101354.44;5098867;27;45551;-78
2021/07/01 06:11:34;;;;;;;;;23.33;22.00;;;;;16.19;73.75;101357.97;5103138;27;45354;-78
2021/07/01 06:14:01;;;;;;;;;17.00;17.00;;;;;16.22;74.02;101361.06;5103027;27;45414;-77
2021/07/01 06:16:31;;;;;;;;;18.00;16.67;;;;;16.25;74.34;101367.91;5103117;27;45353;-78
2021/07/01 06:18:57;;;;;;;;;20.33;20.33;;;;;16.26;73.45;101356.97;5102745;27;45247;-77
2021/07/01 06:21:23;;;;;;;;;22.67;21.00;;;;;16.31;73.43;101366.28;5103031;27;45336;-76
2021/07/01 06:23:49;;;;;;;;;16.67;16.33;;;;;16.33;73.46;101364.22;5103003;27;45321;-80
2021/07/01 06:26:23;;;;;;;;;16.00;15.67;;;;;16.37;73.59;101363.63;5102911;27;45269;-79
2021/07/01 06:28:49;;;;;;;;;20.33;18.00;;;;;16.37;74.03;101360.16;5102952;27;45401;-80
2021/07/01 06:31:14;;;;;;;;;18.67;17.33;;;;;16.40;73.77;101363.25;5102220;27;45653;-79
2021/07/01 06:33:42;;;;;;;;;21.67;16.33;;;;;16.49;73.18;101365.78;5101679;27;45313;-79
2021/07/01 06:36:09;;;;;;;;;18.67;18.00;;;;;16.51;73.15;101361.03;5082609;27;47404;-81
2021/07/01 06:38:37;;;;;;;;;21.67;20.33;;;;;16.62;71.96;101373.06;5100920;27;45657;-81
2021/07/01 06:41:06;;;;;;;;;22.00;20.67;;;;;16.65;72.03;101372.66;5100690;27;45364;-81
2021/07/01 06:43:32;;;;;;;;;21.00;18.67;;;;;16.66;71.59;101369.78;5100200;27;45732;-80
2021/07/01 06:45:59;;;;;;;;;24.00;22.67;;;;;16.73;72.24;101377.03;5100210;27;46482;-79
2021/07/01 06:48:25;;;;;;;;;20.67;20.00;;;;;16.78;70.46;101379.94;5100179;27;45614;-80
2021/07/01 06:50:58;;;;;;;;;20.67;17.67;;;;;16.81;71.50;101376.84;5101161;27;45332;-77
2021/07/01 06:53:26;;;;;;;;;19.67;18.67;;;;;16.89;71.60;101376.69;5100601;27;45209;-79
2021/07/01 06:55:51;;;;;;;;;23.33;22.33;;;;;16.92;70.93;101372.75;5097582;27;46373;-80
2021/07/01 06:58:21;;;;;;;;;22.00;21.00;;;;;17.01;71.38;101376.94;5100474;27;45792;-79
2021/07/01 07:00:49;;;;;;;;;27.67;24.67;;;;;17.09;70.91;101373.25;5100495;27;45322;-79
2021/07/01 07:03:19;;;;;;;;;22.00;22.00;;;;;17.15;70.83;101371.63;5101667;27;45339;-80
2021/07/01 07:05:48;;;;;;;;;18.00;18.00;;;;;17.20;69.56;101379.06;5102513;27;47962;-78
2021/07/01 07:08:14;;;;;;;;;24.33;20.67;;;;;17.22;69.27;101385.06;5102821;27;45290;-78
2021/07/01 07:10:42;;;;;;;;;22.00;20.67;;;;;17.18;69.12;101387.31;5083279;27;45715;-79
2021/07/01 07:13:09;;;;;;;;;27.00;25.33;;;;;17.21;69.70;101386.09;5083314;27;46189;-79
2021/07/01 07:15:34;;;;;;;;;17.67;15.00;;;;;17.26;69.54;101383.63;5082656;27;48414;-81
2021/07/01 07:18:12;;;;;;;;;20.00;20.00;;;;;17.38;69.73;101390.06;5101134;27;45461;-83
2021/07/01 07:20:40;;;;;;;;;20.00;19.33;;;;;17.50;69.91;101394.81;5099806;27;45418;-81
2021/07/01 07:23:07;;;;;;;;;18.33;16.00;;;;;17.59;68.92;101392.75;5100749;27;45497;-83
2021/07/01 07:25:39;;;;;;;;;23.33;20.00;;;;;17.63;67.11;101388.66;5096269;27;47361;-81
2021/07/01 07:28:06;;;;;;;;;21.33;19.33;;;;;17.65;67.59;101397.31;5101021;27;45616;-81
2021/07/01 07:30:32;;;;;;;;;15.00;12.67;;;;;17.63;67.22;101397.50;5082633;27;45267;-80
2021/07/01 07:33:02;;;;;;;;;16.67;15.67;;;;;17.64;67.51;101391.13;5101112;27;45462;-79
2021/07/01 07:35:27;;;;;;;;;17.33;16.33;;;;;17.65;66.34;101398.16;5101474;27;45308;-82
2021/07/01 07:37:53;;;;;;;;;19.67;16.33;;;;;17.62;66.69;101395.88;5100420;27;45305;-78
2021/07/01 07:40:18;;;;;;;;;19.67;15.00;;;;;17.61;66.53;101396.91;5101204;27;45354;-77
2021/07/01 07:42:45;;;;;;;;;17.00;16.00;;;;;17.67;67.13;101401.47;5100884;27;45309;-80
2021/07/01 07:45:11;;;;;;;;;17.67;15.33;;;;;17.71;66.72;101395.66;5101828;27;45446;-79
2021/07/01 07:47:37;;;;;;;;;20.00;17.67;;;;;17.79;66.42;101385.56;5100025;27;45380;-80
2021/07/01 07:50:04;;;;;;;;;17.00;15.67;;;;;17.87;66.23;101394.44;5099921;27;45595;-79
2021/07/01 07:52:31;;;;;;;;;16.67;16.67;;;;;17.93;65.03;101396.31;5100728;27;45426;-79
2021/07/01 07:55:01;;;;;;;;;14.67;14.67;;;;;17.90;64.29;101391.34;5099762;27;46100;-78
2021/07/01 07:57:28;;;;;;;;;15.67;15.67;;;;;17.88;65.17;101396.09;5102553;27;45253;-78
2021/07/01 07:59:57;;;;;;;;;15.33;14.00;;;;;17.85;64.36;101391.13;5101136;27;45557;-78
2021/07/01 08:02:37;;;;;;;;;13.33;12.33;;;;;17.84;65.21;101389.47;5087109;27;45453;-78
2021/07/01 08:05:03;;;;;;;;;19.00;17.67;;;;;17.81;66.25;101404.16;5063309;28;47394;-78
2021/07/01 08:07:31;;;;;;;;;16.33;12.67;;;;;17.75;65.12;101394.22;5081302;28;45461;-78
2021/07/01 08:09:59;;;;;;;;;15.67;14.33;;;;;17.71;63.79;101388.44;5092133;27;45398;-80
2021/07/01 08:12:28;;;;;;;;;16.33;14.00;;;;;17.66;63.00;101393.63;5102367;27;45323;-79
2021/07/01 08:14:54;;;;;;;;;16.67;13.67;;;;;17.64;63.93;101396.50;5100742;27;45674;-79
2021/07/01 08:17:19;;;;;;;;;18.33;17.67;;;;;17.65;63.54;101389.25;5101709;27;45701;-78
2021/07/01 08:19:46;;;;;;;;;20.33;18.67;;;;;17.71;64.02;101399.19;5100438;27;45517;-79
2021/07/01 08:22:12;;;;;;;;;18.33;18.33;;;;;17.77;63.26;101390.28;5100677;27;46436;-78
2021/07/01 08:24:38;;;;;;;;;16.67;14.33;;;;;17.82;63.99;101384.31;5083042;27;47059;-78
2021/07/01 08:27:04;;;;;;;;;26.67;21.00;;;;;17.95;63.60;101386.16;5098041;27;45310;-80
2021/07/01 08:29:29;;;;;;;;;20.67;19.33;;;;;18.04;63.51;101378.69;5100419;27;45347;-80
2021/07/01 08:31:59;;;;;;;;;12.67;12.67;;;;;18.11;63.65;101374.16;5100612;27;45540;-80
2021/07/01 08:34:25;;;;;;;;;18.67;17.00;;;;;18.22;62.79;101378.06;5100632;27;45336;-80
2021/07/01 08:36:50;;;;;;;;;17.67;14.67;;;;;18.22;61.84;101374.56;5100643;27;45361;-80
2021/07/01 08:39:16;;;;;;;;;16.67;15.00;;;;;18.21;62.43;101367.53;5101022;27;45646;-79
2021/07/01 08:41:43;;;;;;;;;14.33;14.33;;;;;18.26;62.31;101375.81;5102127;27;45446;-79
2021/07/01 08:44:17;;;;;;;;;18.00;17.67;;;;;18.28;62.93;101365.63;5102764;27;47083;-78
2021/07/01 08:46:47;;;;;;;;;19.33;15.67;;;;;18.47;61.19;101371.19;5083006;27;45309;-79
2021/07/01 08:49:25;;;;;;;;;24.00;18.00;;;;;18.58;61.57;101364.34;5101448;27;45377;-77
2021/07/01 08:51:56;;;;;;;;;19.00;19.00;;;;;18.66;61.79;101361.38;5100540;27;45368;-79
2021/07/01 08:54:31;;;;;;;;;19.00;17.00;;;;;18.77;62.30;101360.72;5100429;27;45666;-79
2021/07/01 08:56:58;;;;;;;;;20.33;18.67;;;;;18.78;61.98;101361.53;5100293;27;45219;-78
2021/07/01 08:59:26;;;;;;;;;16.00;15.00;;;;;18.83;61.20;101369.81;5096837;27;45514;-78
2021/07/01 09:01:59;;;;;;;;;16.67;16.67;;;;;18.93;60.62;101375.56;5074662;27;46177;-79
2021/07/01 09:04:30;;;;;;;;;18.00;17.00;;;;;19.09;60.90;101372.63;5080544;27;48047;-79
2021/07/01 09:07:01;;;;;;;;;17.67;16.33;;;;;19.21;58.98;101370.06;5066519;28;45456;-78
2021/07/01 09:09:39;;;;;;;;;20.00;16.00;;;;;19.28;58.87;101365.44;5080640;27;45691;-78
2021/07/01 09:12:07;;;;;;;;;18.00;16.00;;;;;19.29;59.18;101370.63;5077163;27;46459;-78
2021/07/01 09:14:36;;;;;;;;;22.00;20.00;;;;;19.35;59.65;101373.47;5090190;27;46119;-75
2021/07/01 09:17:09;;;;;;;;;20.67;18.67;;;;;19.36;58.61;101369.75;5072414;27;45474;-76
2021/07/01 09:19:37;;;;;;;;;20.33;18.67;;;;;19.41;59.25;101368.06;5096903;27;45443;-77
2021/07/01 09:22:03;;;;;;;;;15.67;15.67;;;;;19.53;59.19;101378.13;5098427;27;45303;-77
2021/07/01 09:24:37;;;;;;;;;15.67;15.00;;;;;19.59;58.95;101365.63;5080192;27;46992;-76
2021/07/01 09:27:09;;;;;;;;;17.00;16.33;;;;;19.74;58.83;101365.28;5082143;27;45253;-77
2021/07/01 09:29:35;;;;;;;;;21.33;18.33;;;;;19.85;57.00;101369.16;5099840;27;45548;-76
2021/07/01 09:32:01;;;;;;;;;16.67;15.33;;;;;19.85;57.72;101355.66;5098920;27;45440;-77
2021/07/01 09:34:28;;;;;;;;;20.33;17.33;;;;;19.87;57.50;101361.69;5096025;27;45415;-76
2021/07/01 09:36:56;;;;;;;;;19.00;18.67;;;;;19.91;57.95;101365.56;5081828;27;45669;-78
2021/07/01 09:39:24;;;;;;;;;20.00;18.33;;;;;19.88;56.21;101364.16;5095918;27;45318;-76
2021/07/01 09:41:50;;;;;;;;;18.33;16.67;;;;;19.84;56.89;101372.91;5091472;27;45275;-75
2021/07/01 09:44:17;;;;;;;;;18.00;16.00;;;;;19.88;57.12;101371.41;5092753;27;45649;-77
2021/07/01 09:46:47;;;;;;;;;21.67;18.00;;;;;19.94;55.10;101373.22;5092982;27;45312;-77
2021/07/01 09:49:18;;;;;;;;;19.67;18.33;;;;;20.00;57.64;101371.50;5090771;27;45936;-78
2021/07/01 09:51:47;;;;;;;;;17.33;17.33;;;;;20.08;57.89;101379.31;5088399;27;45733;-77
2021/07/01 09:54:15;;;;;;;;;19.00;17.33;;;;;20.17;57.11;101372.59;5088194;27;45470;-77
2021/07/01 09:56:43;;;;;;;;;17.33;17.33;;;;;20.27;57.10;101374.81;5091609;27;45365;-78
2021/07/01 09:59:21;;;;;;;;;19.33;18.00;;;;;20.36;56.10;101372.63;5103151;27;45406;-76
2021/07/01 10:01:47;;;;;;;;;19.00;16.33;;;;;20.43;56.37;101372.53;5102880;27;45812;-76
2021/07/01 10:04:12;;;;;;;;;20.67;19.67;;;;;20.53;54.87;101363.91;5103030;27;45695;-78
2021/07/01 10:06:38;;;;;;;;;23.00;22.00;;;;;20.58;56.00;101368.63;5102750;27;45696;-77
2021/07/01 10:09:06;;;;;;;;;24.00;18.67;;;;;20.59;55.88;101370.28;5084322;27;45462;-77
2021/07/01 10:11:36;;;;;;;;;21.67;21.67;;;;;20.55;56.88;101365.34;5103211;27;45295;-78
2021/07/01 10:14:10;;;;;;;;;31.33;30.00;;;;;20.48;56.46;101367.28;5103187;27;45267;-78
2021/07/01 10:16:35;;;;;;;;;17.67;17.67;;;;;20.44;56.67;101372.31;5100854;27;45343;-77
2021/07/01 10:19:07;;;;;;;;;19.67;18.67;;;;;20.39;55.55;101371.34;5102271;27;45165;-77
2021/07/01 10:21:34;;;;;;;;;24.33;23.00;;;;;20.29;55.69;101369.97;5102083;27;45282;-77
2021/07/01 10:24:19;;;;;;;;;20.33;17.67;;;;;20.24;58.26;101369.84;5104041;27;45275;-75
2021/07/01 10:26:47;;;;;;;;;18.00;17.67;;;;;20.29;58.33;101375.38;5103150;27;45663;-76
2021/07/01 10:29:15;;;;;;;;;19.00;19.00;;;;;20.29;58.20;101375.38;5102670;27;45381;-76
2021/07/01 10:31:59;;;;;;;;;20.33;18.33;;;;;20.31;56.93;101372.47;5102180;27;45516;-75
2021/07/01 10:34:26;;;;;;;;;19.33;18.67;;;;;20.36;58.18;101371.78;5082622;27;47426;-76
2021/07/01 10:37:14;;;;;;;;;22.33;19.00;;;;;20.43;58.54;101369.84;5102588;27;45255;-76
2021/07/01 10:39:40;;;;;;;;;21.67;21.67;;;;;20.49;58.63;101363.53;5102892;27;45327;-76
2021/07/01 10:42:06;;;;;;;;;21.33;20.00;;;;;20.58;58.55;101369.44;5084163;27;46913;-73
2021/07/01 10:44:31;;;;;;;;;19.67;17.33;;;;;20.65;57.91;101372.09;5102552;27;46233;-75
2021/07/01 10:46:57;;;;;;;;;16.67;16.00;;;;;20.64;55.96;101370.41;5102594;27;45294;-76
2021/07/01 10:49:35;;;;;;;;;20.67;19.00;;;;;20.73;55.75;101369.06;5102277;27;45219;-74
2021/07/01 10:52:04;;;;;;;;;21.33;19.67;;;;;20.86;56.01;101372.66;5104269;27;45495;-75
2021/07/01 10:54:30;;;;;;;;;24.67;22.00;;;;;21.03;54.92;101367.44;5087094;27;47215;-74
2021/07/01 10:57:09;;;;;;;;;24.33;23.00;;;;;21.31;54.98;101369.53;5102272;27;45324;-75
2021/07/01 10:59:46;;;;;;;;;21.00;20.67;;;;;21.58;54.84;101373.72;5103785;27;45506;-75
2021/07/01 11:02:20;;;;;;;;;21.00;20.33;;;;;21.74;54.94;101368.66;5100859;27;45470;-75
2021/07/01 11:04:53;;;;;;;;;21.00;21.00;;;;;21.82;54.44;101376.47;5102515;27;45432;-75
2021/07/01 11:07:20;;;;;;;;;22.00;19.00;;;;;21.81;54.01;101370.22;5099152;27;45371;-75
2021/07/01 11:09:47;;;;;;;;;21.67;21.67;;;;;21.79;54.17;101371.53;5089640;27;45377;-76
2021/07/01 11:12:13;;;;;;;;;24.00;23.00;;;;;21.80;53.09;101376.69;5101444;27;45495;-76
2021/07/01 11:14:44;;;;;;;;;20.33;20.33;;;;;21.76;53.71;101364.69;5090622;27;46304;-77